createdAt,value
2018-05-17T00:00:43.143Z,94.00
2018-05-17T00:03:10.527Z,93.80
2018-05-17T00:05:37.919Z,93.77
2018-05-17T00:08:05.307Z,93.95
2018-05-17T00:10:32.696Z,93.91
2018-05-17T00:13:00.096Z,93.86
2018-05-17T00:15:27.632Z,94.77
2018-05-17T00:17:55.024Z,95.98
2018-05-17T00:20:22.410Z,95.19
2018-05-17T00:22:49.808Z,95.74
2018-05-17T00:25:17.190Z,95.30
2018-05-17T00:27:44.592Z,95.28
2018-05-17T00:30:11.984Z,94.58
2018-05-17T00:32:39.383Z,94.79
2018-05-17T00:35:06.773Z,93.94
2018-05-17T00:37:34.158Z,93.54
2018-05-17T00:40:01.551Z,93.19
2018-05-17T00:42:28.943Z,92.43
2018-05-17T00:44:56.343Z,91.71
2018-05-17T00:47:23.735Z,89.87
2018-05-17T00:49:51.218Z,90.97
2018-05-17T00:52:18.631Z,90.85
2018-05-17T00:54:46.215Z,90.51
2018-05-17T00:57:13.610Z,91.38
2018-05-17T00:59:41.084Z,89.72
2018-05-17T01:02:08.391Z,89.14
2018-05-17T01:04:35.779Z,89.46
2018-05-17T01:07:03.166Z,89.38
2018-05-17T01:09:30.582Z,88.46
2018-05-17T01:11:57.979Z,89.21
2018-05-17T01:14:25.367Z,89.47
2018-05-17T01:16:52.760Z,88.79
2018-05-17T01:19:20.298Z,88.87
2018-05-17T01:21:47.682Z,88.14
2018-05-17T01:24:15.134Z,88.39
2018-05-17T01:26:42.565Z,88.79
2018-05-17T01:29:09.912Z,88.68
2018-05-17T01:31:37.291Z,89.77
2018-05-17T01:34:04.688Z,89.15
2018-05-17T01:36:32.075Z,88.68
2018-05-17T01:38:59.470Z,89.32
2018-05-17T01:41:26.854Z,89.38
2018-05-17T01:43:54.255Z,88.67
2018-05-17T01:46:21.638Z,86.87
2018-05-17T01:48:49.036Z,88.03
2018-05-17T01:51:16.423Z,88.00
2018-05-17T01:53:43.878Z,86.79
2018-05-17T01:56:11.271Z,88.17
2018-05-17T01:58:38.654Z,88.81
2018-05-17T02:01:06.054Z,88.53
2018-05-17T02:03:33.443Z,88.31
2018-05-17T02:06:00.875Z,88.13
2018-05-17T02:08:28.254Z,88.56
2018-05-17T02:10:55.669Z,88.62
2018-05-17T02:13:23.056Z,88.74
2018-05-17T02:15:50.447Z,88.91
2018-05-17T02:18:17.842Z,90.72
2018-05-17T02:20:45.222Z,89.43
2018-05-17T02:23:12.614Z,89.79
2018-05-17T02:25:40.007Z,89.49
2018-05-17T02:28:07.402Z,89.73
2018-05-17T02:30:34.786Z,90.37
2018-05-17T02:33:02.175Z,90.08
2018-05-17T02:35:29.568Z,90.34
2018-05-17T02:37:56.963Z,90.25
2018-05-17T02:40:24.355Z,90.64
2018-05-17T02:42:51.739Z,91.10
2018-05-17T02:45:19.147Z,90.70
2018-05-17T02:47:46.540Z,91.20
2018-05-17T02:50:13.918Z,91.37
2018-05-17T02:52:41.314Z,90.60
2018-05-17T02:55:08.703Z,89.26
2018-05-17T02:57:36.107Z,89.76
2018-05-17T03:00:03.495Z,90.26
2018-05-17T03:02:30.895Z,90.88
2018-05-17T03:04:58.275Z,90.15
2018-05-17T03:07:25.671Z,90.43
2018-05-17T03:09:53.062Z,91.23
2018-05-17T03:12:20.478Z,90.67
2018-05-17T03:14:47.871Z,89.75
2018-05-17T03:17:15.262Z,89.58
2018-05-17T03:19:42.658Z,89.47
2018-05-17T03:22:10.047Z,88.95
2018-05-17T03:24:37.442Z,89.10
2018-05-17T03:27:04.832Z,87.95
2018-05-17T03:29:32.223Z,87.72
2018-05-17T03:31:59.609Z,88.68
2018-05-17T03:34:27.170Z,88.17
2018-05-17T03:36:54.554Z,88.29
2018-05-17T03:39:21.954Z,88.41
2018-05-17T03:41:49.350Z,88.62
2018-05-17T03:44:16.735Z,87.85
2018-05-17T03:46:44.136Z,88.11
2018-05-17T03:49:11.529Z,88.23
2018-05-17T03:51:38.919Z,87.04
2018-05-17T03:54:06.311Z,87.86
2018-05-17T03:56:33.717Z,88.01
2018-05-17T03:59:01.113Z,87.27
2018-05-17T04:01:40.150Z,87.51
2018-05-17T04:04:19.334Z,87.50
2018-05-17T04:06:46.722Z,87.30
2018-05-17T04:09:14.118Z,87.64
2018-05-17T04:11:41.515Z,87.65
2018-05-17T04:14:08.898Z,86.48
2018-05-17T04:16:36.295Z,87.36
2018-05-17T04:19:03.694Z,87.22
2018-05-17T04:21:31.104Z,86.76
2018-05-17T04:23:58.494Z,87.34
2018-05-17T04:26:25.938Z,86.31
2018-05-17T04:28:53.307Z,86.55
2018-05-17T04:31:20.688Z,86.57
2018-05-17T04:33:48.087Z,86.15
2018-05-17T04:36:16.282Z,84.72
2018-05-17T04:38:43.665Z,85.67
2018-05-17T04:41:11.062Z,87.17
2018-05-17T04:43:38.451Z,86.13
2018-05-17T04:46:05.887Z,85.47
2018-05-17T04:48:33.259Z,85.67
2018-05-17T04:51:00.646Z,85.10
2018-05-17T04:53:28.037Z,85.05
2018-05-17T04:55:55.424Z,85.63
2018-05-17T04:58:22.823Z,85.10
2018-05-17T05:00:50.216Z,84.55
2018-05-17T05:03:17.609Z,83.33
2018-05-17T05:05:44.994Z,83.60
2018-05-17T05:08:12.394Z,84.11
2018-05-17T05:10:39.783Z,84.32
2018-05-17T05:13:07.167Z,84.42
2018-05-17T05:15:34.559Z,83.60
2018-05-17T05:18:01.992Z,82.85
2018-05-17T05:20:29.388Z,82.70
2018-05-17T05:22:56.799Z,83.60
2018-05-17T05:25:24.298Z,83.06
2018-05-17T05:27:51.602Z,82.78
2018-05-17T05:30:18.995Z,82.57
2018-05-17T05:32:46.399Z,82.12
2018-05-17T05:35:13.775Z,81.62
2018-05-17T05:37:41.202Z,82.06
2018-05-17T05:40:08.555Z,81.12
2018-05-17T05:42:35.958Z,80.50
2018-05-17T05:45:03.347Z,78.80
2018-05-17T05:47:30.748Z,78.46
2018-05-17T05:49:58.211Z,78.51
2018-05-17T05:52:25.604Z,78.13
2018-05-17T05:54:52.998Z,77.66
2018-05-17T05:57:20.398Z,79.04
2018-05-17T05:59:47.802Z,78.53
2018-05-17T06:02:15.189Z,78.34
2018-05-17T06:04:42.579Z,78.64
2018-05-17T06:07:10.043Z,79.08
2018-05-17T06:09:37.367Z,78.74
2018-05-17T06:12:04.756Z,79.51
2018-05-17T06:14:32.167Z,77.46
2018-05-17T06:16:59.572Z,77.36
2018-05-17T06:19:26.980Z,76.66
2018-05-17T06:21:54.375Z,77.32
2018-05-17T06:24:21.826Z,75.76
2018-05-17T06:26:49.203Z,77.04
2018-05-17T06:29:16.589Z,77.92
2018-05-17T06:31:43.990Z,77.48
2018-05-17T06:34:11.461Z,76.80
2018-05-17T06:36:38.831Z,76.93
2018-05-17T06:39:06.225Z,77.80
2018-05-17T06:41:33.615Z,76.17
2018-05-17T06:44:01.027Z,76.99
2018-05-17T06:46:28.398Z,75.99
2018-05-17T06:48:55.786Z,75.70
2018-05-17T06:51:23.174Z,75.79
2018-05-17T06:53:50.568Z,75.35
2018-05-17T06:56:17.959Z,74.67
2018-05-17T06:58:45.355Z,73.35
2018-05-17T07:01:12.784Z,72.28
2018-05-17T07:03:40.139Z,73.46
2018-05-17T07:06:07.539Z,72.93
2018-05-17T07:08:34.928Z,73.46
2018-05-17T07:11:02.322Z,73.12
2018-05-17T07:13:29.920Z,72.95
2018-05-17T07:15:57.307Z,73.79
2018-05-17T07:18:24.882Z,73.81
2018-05-17T07:20:52.090Z,73.76
2018-05-17T07:23:19.491Z,72.93
2018-05-17T07:25:46.884Z,73.15
2018-05-17T07:28:14.276Z,71.61
2018-05-17T07:30:41.727Z,70.18
2018-05-17T07:33:09.116Z,70.84
2018-05-17T07:35:36.510Z,67.93
2018-05-17T07:38:03.894Z,69.02
2018-05-17T07:40:31.308Z,68.30
2018-05-17T07:42:58.690Z,68.28
2018-05-17T07:45:26.120Z,69.89
2018-05-17T07:47:53.663Z,71.55
2018-05-17T07:50:21.047Z,70.05
2018-05-17T07:52:48.443Z,68.45
2018-05-17T07:55:15.831Z,69.40
2018-05-17T07:57:43.226Z,69.83
2018-05-17T08:00:10.615Z,70.88
2018-05-17T08:02:38.023Z,70.88
2018-05-17T08:05:05.406Z,69.83
2018-05-17T08:07:32.810Z,70.52
2018-05-17T08:10:00.203Z,70.29
2018-05-17T08:12:27.670Z,68.58
2018-05-17T08:14:55.185Z,68.57
2018-05-17T08:17:22.563Z,69.70
2018-05-17T08:19:49.951Z,71.02
2018-05-17T08:22:17.347Z,69.67
2018-05-17T08:24:44.747Z,69.35
2018-05-17T08:27:12.163Z,68.24
2018-05-17T08:29:39.543Z,67.98
2018-05-17T08:32:06.935Z,66.40
2018-05-17T08:34:34.326Z,64.74
2018-05-17T08:37:01.832Z,63.92
2018-05-17T08:39:29.225Z,63.92
2018-05-17T08:41:56.625Z,64.89
2018-05-17T08:44:24.007Z,64.22
2018-05-17T08:46:51.395Z,64.52
2018-05-17T08:49:18.787Z,63.92
2018-05-17T08:51:46.175Z,63.53
2018-05-17T08:54:13.571Z,64.69
2018-05-17T08:56:40.955Z,64.31
2018-05-17T08:59:08.358Z,63.01
2018-05-17T09:01:35.750Z,60.63
2018-05-17T09:04:03.135Z,60.30
2018-05-17T09:06:30.587Z,61.28
2018-05-17T09:08:58.005Z,61.87
2018-05-17T09:11:25.360Z,60.04
2018-05-17T09:13:52.881Z,59.18
2018-05-17T09:16:20.175Z,60.29
2018-05-17T09:18:47.607Z,59.56
2018-05-17T09:21:14.970Z,59.46
2018-05-17T09:23:42.362Z,60.50
2018-05-17T09:26:09.759Z,61.13
2018-05-17T09:28:37.160Z,61.20
2018-05-17T09:31:04.539Z,60.10
2018-05-17T09:33:31.939Z,59.73
2018-05-17T09:35:59.327Z,60.78
2018-05-17T09:38:26.779Z,59.96
2018-05-17T09:40:54.173Z,58.46
2018-05-17T09:43:21.559Z,57.04
2018-05-17T09:45:49.003Z,56.31
2018-05-17T09:48:16.392Z,56.17
2018-05-17T09:50:43.787Z,52.75
2018-05-17T09:53:11.175Z,52.27
2018-05-17T09:55:38.563Z,50.63
2018-05-17T09:58:06.079Z,51.35
2018-05-17T10:00:33.495Z,50.02
2018-05-17T10:03:00.883Z,51.70
2018-05-17T10:05:28.338Z,53.36
2018-05-17T10:07:55.732Z,51.58
2018-05-17T10:10:23.127Z,51.08
2018-05-17T10:12:50.518Z,51.98
2018-05-17T10:15:17.906Z,52.37
2018-05-17T10:17:45.295Z,53.70
2018-05-17T10:20:12.698Z,50.21
2018-05-17T10:22:40.098Z,51.11
2018-05-17T10:25:07.491Z,50.51
2018-05-17T10:27:34.891Z,50.00
2018-05-17T10:30:02.274Z,48.33
2018-05-17T10:32:29.663Z,48.96
2018-05-17T10:34:57.059Z,50.62
2018-05-17T10:37:24.453Z,49.08
2018-05-17T10:39:51.831Z,47.67
2018-05-17T10:42:19.294Z,47.18
2018-05-17T10:44:46.630Z,46.14
2018-05-17T10:47:14.011Z,45.21
2018-05-17T10:49:41.398Z,44.43
2018-05-17T10:52:08.803Z,47.59
2018-05-17T10:54:36.304Z,44.27
2018-05-17T10:57:03.622Z,43.66
2018-05-17T10:59:31.011Z,45.00
2018-05-17T11:01:58.410Z,43.74
2018-05-17T11:04:25.795Z,44.33
2018-05-17T11:06:53.186Z,41.83
2018-05-17T11:09:20.706Z,41.79
2018-05-17T11:11:48.091Z,42.98
2018-05-17T11:14:15.478Z,43.67
2018-05-17T11:16:42.878Z,44.92
2018-05-17T11:19:10.266Z,41.19
2018-05-17T11:21:37.656Z,42.14
2018-05-17T11:24:05.059Z,43.85
2018-05-17T11:26:32.452Z,44.44
2018-05-17T11:28:59.848Z,46.56
2018-05-17T11:31:27.237Z,44.72
2018-05-17T11:33:54.627Z,45.41
2018-05-17T11:36:22.017Z,45.46
2018-05-17T11:38:49.403Z,41.88
2018-05-17T11:41:16.806Z,44.69
2018-05-17T11:43:44.204Z,42.81
2018-05-17T11:46:11.598Z,44.16
2018-05-17T11:48:38.980Z,46.77
2018-05-17T11:51:06.391Z,40.83
2018-05-17T11:53:33.770Z,42.90
2018-05-17T11:56:01.165Z,39.25
2018-05-17T11:58:28.558Z,40.60
2018-05-17T12:00:55.951Z,43.69
2018-05-17T12:03:23.342Z,40.81
2018-05-17T12:05:50.734Z,41.46
2018-05-17T12:08:18.122Z,39.83
2018-05-17T12:10:45.507Z,41.34
2018-05-17T12:13:12.903Z,41.48
2018-05-17T12:15:40.286Z,41.11
2018-05-17T12:18:07.679Z,39.44
2018-05-17T12:20:35.083Z,39.60
2018-05-17T12:23:02.563Z,37.96
2018-05-17T12:25:29.870Z,39.81
2018-05-17T12:27:57.258Z,39.37
2018-05-17T12:30:24.651Z,41.46
2018-05-17T12:32:52.039Z,43.03
2018-05-17T12:35:19.439Z,42.46
2018-05-17T12:37:46.826Z,43.85
2018-05-17T12:40:14.215Z,42.75
2018-05-17T12:42:41.638Z,45.04
2018-05-17T12:45:08.989Z,41.79
2018-05-17T12:47:36.387Z,41.49
2018-05-17T12:50:03.782Z,40.17
2018-05-17T12:52:31.175Z,41.98
2018-05-17T12:54:58.559Z,42.19
2018-05-17T12:57:25.967Z,41.58
2018-05-17T12:59:53.346Z,40.63
2018-05-17T13:02:20.738Z,42.67
2018-05-17T13:04:48.131Z,41.19
2018-05-17T13:07:15.531Z,40.94
2018-05-17T13:09:42.919Z,39.75
2018-05-17T13:12:10.303Z,41.45
2018-05-17T13:14:37.696Z,41.83
2018-05-17T13:17:05.088Z,43.28
2018-05-17T13:19:32.486Z,41.15
2018-05-17T13:21:59.874Z,41.24
2018-05-17T13:24:27.278Z,40.82
2018-05-17T13:26:54.666Z,40.79
2018-05-17T13:29:22.063Z,40.32
2018-05-17T13:31:49.450Z,41.09
2018-05-17T13:34:16.917Z,39.80
2018-05-17T13:36:44.239Z,41.15
2018-05-17T13:39:11.629Z,42.02
2018-05-17T13:41:39.013Z,39.52
2018-05-17T13:44:06.399Z,41.42
2018-05-17T13:46:33.791Z,40.69
2018-05-17T13:49:01.233Z,38.68
2018-05-17T13:51:28.558Z,38.61
2018-05-17T13:53:55.951Z,38.75
2018-05-17T13:56:23.349Z,37.66
2018-05-17T13:58:50.734Z,37.53
2018-05-17T14:01:18.135Z,39.99
2018-05-17T14:03:45.529Z,39.67
2018-05-17T14:06:12.919Z,39.43
2018-05-17T14:08:40.311Z,40.74
2018-05-17T14:11:07.707Z,41.02
2018-05-17T14:13:35.103Z,41.38
2018-05-17T14:16:02.494Z,40.94
2018-05-17T14:18:29.891Z,41.36
2018-05-17T14:20:57.275Z,41.36
2018-05-17T14:23:24.679Z,40.67
2018-05-17T14:25:52.070Z,40.38
2018-05-17T14:28:19.572Z,41.23
2018-05-17T14:30:46.870Z,41.48
2018-05-17T14:33:14.261Z,41.34
2018-05-17T14:35:41.661Z,40.11
2018-05-17T14:38:09.043Z,39.58
2018-05-17T14:40:36.447Z,40.13
2018-05-17T14:43:04.436Z,41.58
2018-05-17T14:45:31.862Z,40.67
2018-05-17T14:47:59.254Z,41.42
2018-05-17T14:50:26.647Z,40.31
2018-05-17T14:52:54.026Z,41.54
2018-05-17T14:55:21.517Z,41.24
2018-05-17T14:57:48.902Z,41.78
2018-05-17T15:00:16.291Z,41.51
2018-05-17T15:02:43.683Z,41.28
2018-05-17T15:05:11.127Z,41.51
2018-05-17T15:07:38.620Z,42.03
2018-05-17T15:10:07.685Z,42.16
2018-05-17T15:12:35.320Z,42.91
2018-05-17T15:15:02.715Z,41.87
2018-05-17T15:17:30.110Z,43.10
2018-05-17T15:19:57.499Z,41.93
2018-05-17T15:22:24.942Z,41.77
2018-05-17T15:24:52.330Z,42.24
2018-05-17T15:27:19.828Z,42.35
2018-05-17T15:29:47.266Z,42.70
2018-05-17T15:32:14.530Z,40.27
2018-05-17T15:34:41.923Z,39.49
2018-05-17T15:37:09.319Z,38.80
2018-05-17T15:39:36.728Z,39.19
2018-05-17T15:42:04.115Z,39.19
2018-05-17T15:44:31.499Z,38.66
2018-05-17T15:46:58.892Z,38.87
2018-05-17T15:49:26.289Z,40.08
2018-05-17T15:51:53.674Z,41.23
2018-05-17T15:54:21.075Z,39.42
2018-05-17T15:56:48.467Z,39.80
2018-05-17T15:59:15.883Z,39.89
2018-05-17T16:01:43.271Z,40.82
2018-05-17T16:04:10.725Z,40.52
2018-05-17T16:06:38.071Z,41.32
2018-05-17T16:09:06.254Z,40.25
2018-05-17T16:11:33.672Z,40.42
2018-05-17T16:14:01.083Z,41.02
2018-05-17T16:16:28.507Z,41.68
2018-05-17T16:18:55.905Z,42.46
2018-05-17T16:21:23.356Z,42.12
2018-05-17T16:23:50.742Z,42.45
2018-05-17T16:26:18.131Z,41.64
2018-05-17T16:28:45.527Z,42.99
2018-05-17T16:31:12.915Z,43.44
2018-05-17T16:33:40.306Z,44.69
2018-05-17T16:36:07.691Z,45.33
2018-05-17T16:38:35.090Z,44.84
2018-05-17T16:41:02.480Z,45.75
2018-05-17T16:43:29.867Z,45.80
2018-05-17T16:45:57.259Z,45.37
2018-05-17T16:48:24.767Z,45.35
2018-05-17T16:50:52.043Z,44.92
2018-05-17T16:53:19.575Z,42.76
2018-05-17T16:55:46.831Z,43.13
2018-05-17T16:58:14.235Z,43.04
2018-05-17T17:00:41.732Z,43.48
2018-05-17T17:03:09.038Z,43.32
2018-05-17T17:05:36.430Z,43.38
2018-05-17T17:08:04.265Z,43.54
2018-05-17T17:10:31.658Z,43.78
2018-05-17T17:12:59.050Z,44.86
2018-05-17T17:15:26.445Z,44.50
2018-05-17T17:17:53.906Z,44.38
2018-05-17T17:20:21.307Z,45.07
2018-05-17T17:22:48.704Z,45.21
2018-05-17T17:25:16.091Z,44.77
2018-05-17T17:27:43.478Z,44.80
2018-05-17T17:30:10.871Z,45.04
2018-05-17T17:32:38.263Z,45.34
2018-05-17T17:35:05.673Z,46.22
2018-05-17T17:37:33.063Z,46.31
2018-05-17T17:40:00.448Z,46.36
2018-05-17T17:42:27.839Z,46.52
2018-05-17T17:44:55.251Z,47.27
2018-05-17T17:47:22.689Z,48.01
2018-05-17T17:49:50.275Z,48.10
2018-05-17T17:52:17.607Z,48.40
2018-05-17T17:54:44.987Z,48.91
2018-05-17T17:57:12.499Z,48.41
2018-05-17T17:59:39.967Z,49.17
2018-05-17T18:02:07.363Z,48.99
2018-05-17T18:04:35.053Z,48.65
2018-05-17T18:07:02.524Z,49.12
2018-05-17T18:09:29.919Z,50.05
2018-05-17T18:11:59.094Z,50.27
2018-05-17T18:14:26.875Z,50.77
2018-05-17T18:16:55.820Z,50.79
2018-05-17T18:19:23.278Z,50.84
2018-05-17T18:21:50.711Z,51.88
2018-05-17T18:24:18.157Z,51.86
2018-05-17T18:26:45.534Z,52.30
2018-05-17T18:29:12.931Z,51.78
2018-05-17T18:31:40.314Z,53.14
2018-05-17T18:34:07.719Z,53.47
2018-05-17T18:36:35.109Z,53.81
2018-05-17T18:39:02.487Z,54.24
2018-05-17T18:41:29.868Z,54.08
2018-05-17T18:43:57.262Z,54.17
2018-05-17T18:46:24.652Z,54.89
2018-05-17T18:48:52.169Z,55.84
2018-05-17T18:51:19.627Z,55.88
2018-05-17T18:53:47.038Z,55.87
2018-05-17T18:56:14.541Z,55.90
2018-05-17T18:58:41.950Z,56.54
2018-05-17T19:01:09.342Z,56.49
2018-05-17T19:03:36.778Z,56.54
2018-05-17T19:06:04.176Z,57.04
2018-05-17T19:08:31.586Z,57.73
2018-05-17T19:10:58.998Z,58.03
2018-05-17T19:13:26.395Z,58.28
2018-05-17T19:15:53.788Z,58.43
2018-05-17T19:18:21.179Z,58.44
2018-05-17T19:20:48.581Z,59.33
2018-05-17T19:23:15.980Z,58.81
2018-05-17T19:25:43.485Z,59.53
2018-05-17T19:28:10.862Z,58.94
2018-05-17T19:30:38.266Z,59.80
2018-05-17T19:33:06.412Z,59.26
2018-05-17T19:35:33.798Z,60.46
2018-05-17T19:38:01.195Z,60.57
2018-05-17T19:40:28.758Z,61.07
2018-05-17T19:42:56.150Z,61.11
2018-05-17T19:45:23.639Z,61.67
2018-05-17T19:47:50.940Z,61.71
2018-05-17T19:50:18.335Z,61.79
2018-05-17T19:52:45.754Z,62.29
2018-05-17T19:55:13.231Z,62.77
2018-05-17T19:57:40.626Z,63.14
2018-05-17T20:00:08.011Z,63.17
2018-05-17T20:02:35.432Z,63.79
2018-05-17T20:05:02.867Z,63.95
2018-05-17T20:07:30.207Z,64.07
2018-05-17T20:09:57.598Z,64.33
2018-05-17T20:12:24.987Z,64.75
2018-05-17T20:14:52.383Z,64.65
2018-05-17T20:17:19.771Z,65.18
2018-05-17T20:19:47.175Z,65.52
2018-05-17T20:22:14.559Z,65.89
2018-05-17T20:24:41.963Z,66.42
2018-05-17T20:27:09.355Z,66.81
2018-05-17T20:29:36.755Z,66.20
2018-05-17T20:32:04.144Z,66.83
2018-05-17T20:34:31.539Z,66.69
2018-05-17T20:36:58.919Z,66.72
2018-05-17T20:39:26.315Z,66.99
2018-05-17T20:41:53.707Z,67.57
2018-05-17T20:44:21.102Z,67.20
2018-05-17T20:46:48.498Z,67.88
2018-05-17T20:49:15.968Z,68.19
2018-05-17T20:51:43.362Z,68.05
2018-05-17T20:54:10.780Z,68.71
2018-05-17T20:56:38.226Z,68.84
2018-05-17T20:59:05.595Z,69.19
2018-05-17T21:01:32.986Z,69.66
2018-05-17T21:04:00.375Z,70.03
2018-05-17T21:06:27.780Z,70.15
2018-05-17T21:08:55.176Z,70.67
2018-05-17T21:11:22.575Z,70.98
2018-05-17T21:13:49.975Z,70.73
2018-05-17T21:16:17.366Z,71.26
2018-05-17T21:18:44.770Z,71.80
2018-05-17T21:21:12.191Z,72.14
2018-05-17T21:23:39.575Z,72.04
2018-05-17T21:26:06.970Z,72.59
2018-05-17T21:28:34.358Z,73.18
2018-05-17T21:31:01.744Z,73.43
2018-05-17T21:33:29.139Z,73.76
2018-05-17T21:35:56.519Z,73.26
2018-05-17T21:38:23.918Z,74.12
2018-05-17T21:40:51.302Z,74.61
2018-05-17T21:43:18.700Z,74.01
2018-05-17T21:45:46.091Z,74.49
2018-05-17T21:48:13.481Z,74.97
2018-05-17T21:50:40.871Z,74.59
2018-05-17T21:53:08.267Z,75.06
2018-05-17T21:55:35.785Z,74.89
2018-05-17T21:58:03.202Z,75.30
2018-05-17T22:00:30.594Z,74.60
2018-05-17T22:02:57.990Z,74.87
2018-05-17T22:05:25.377Z,75.30
2018-05-17T22:07:52.758Z,75.69
2018-05-17T22:10:20.162Z,75.61
2018-05-17T22:12:47.555Z,76.22
2018-05-17T22:15:14.950Z,76.20
2018-05-17T22:17:42.337Z,76.41
2018-05-17T22:20:09.843Z,76.86
2018-05-17T22:22:37.223Z,77.08
2018-05-17T22:25:04.615Z,77.14
2018-05-17T22:27:32.002Z,76.81
2018-05-17T22:29:59.399Z,77.04
2018-05-17T22:32:26.803Z,77.26
2018-05-17T22:34:54.191Z,77.29
2018-05-17T22:37:21.579Z,77.46
2018-05-17T22:39:48.964Z,77.45
2018-05-17T22:42:16.359Z,77.49
2018-05-17T22:44:43.744Z,78.01
2018-05-17T22:47:11.147Z,78.32
2018-05-17T22:49:38.530Z,78.40
2018-05-17T22:52:06.026Z,78.25
2018-05-17T22:54:33.415Z,78.55
2018-05-17T22:57:10.463Z,77.99
2018-05-17T22:59:37.854Z,78.66
2018-05-17T23:02:05.250Z,79.09
2018-05-17T23:04:32.653Z,78.86
2018-05-17T23:07:00.058Z,79.66
2018-05-17T23:09:27.447Z,79.71
2018-05-17T23:11:54.835Z,80.06
2018-05-17T23:14:22.222Z,80.44
2018-05-17T23:16:49.615Z,80.02
2018-05-17T23:19:17.008Z,80.48
2018-05-17T23:21:44.398Z,80.19
2018-05-17T23:24:11.783Z,80.27
2018-05-17T23:26:39.170Z,80.65
2018-05-17T23:29:06.702Z,80.35
2018-05-17T23:31:34.087Z,80.67
2018-05-17T23:34:01.479Z,81.20
2018-05-17T23:36:28.867Z,80.80
2018-05-17T23:38:56.273Z,81.33
2018-05-17T23:44:22.412Z,82.03
2018-05-17T23:46:49.802Z,82.09
2018-05-17T23:49:17.190Z,82.52
2018-05-17T23:51:44.574Z,82.60
2018-05-17T23:54:12.398Z,82.72
2018-05-17T23:56:39.787Z,82.62
2018-05-17T23:59:07.174Z,82.86
